Averill Park, NY (12018)

4:26 PM EST on February 08, 2016 (GMT -0500)
Taborton Mountain | | Change Station
CLOSE
Current Station
Personal Weather Station
Location: Averill Park, NY
Elevation: 1296 ft
Nearby Weather Stations

Elev 1296 ft 42.61 °N, 73.48 °W | Updated 37 seconds ago

Snow
Snow
21.7 °F
Feels Like 16 °F
N
4.0
Wind Variable Wind from NNW
Gusts 9.0 mph

Today
High -- | Low -- °F
--% Chance of Precip.
Yesterday
High -- | Low -- °F
Precip. -- in
Pressure 29.80 in
Visibility 10.0 miles
Clouds Few 4000 ft
Mostly Cloudy 5000 ft
Overcast 8000 ft
Windchill 16 °F
Dew Point 18 °F
Humidity 84%
Rainfall 0.00 in
Snow Depth Not available.
7:00 AM 5:16 PM
New Moon, 0% visible
METAR KALB 082051Z VRB03KT 10SM FEW040 BKN050 OVC080 M01/M19 A2979 RMK AO2 SLP089 T10061189 55010
Pressure 29.80 in
Visibility 10.0 miles
Clouds Few 4000 ft
Mostly Cloudy 5000 ft
Overcast 8000 ft
Windchill 16 °F
Dew Point 18 °F
Humidity 84%
Rainfall 0.00 in
Snow Depth Not available.
7:00 AM 5:16 PM
New Moon, 0% visible
METAR KALB 082051Z VRB03KT 10SM FEW040 BKN050 OVC080 M01/M19 A2979 RMK AO2 SLP089 T10061189 55010

10-Day Weather Forecast

Almanac

Astronomy

Feb. 08, 2016 Rise Set
Actual Time
Civil Twilight
Nautical Twilight
Astronomical Twilight
Moon
Length of Visible Light
Length of Day
Tomorrow will be .
, % of the Moon is Illuminated

Today's Extremes

State Highs State Lows

Community

WunderPhotos

Upload Photos

1,891,516 photos uploaded!

WunderBlog® & News

Nearby

Air Quality

  Air Quality AQ Index Pollutant
Not available.

Snow Depth

Station Depth Elevation

Earthquake Activity

City Distance Mag. Time & Date
Minimum magnitude displayed is 2.5.

Coastal Water Temperatures

Place Temperature

Stations

Nearby Weather Stations

Station Location Temp. Windchill Dew Point Humidity Wind Precip. Elev Updated Type
                   

Watches & Warnings

There are currently no watches in effect.